createdAt,value
2023-03-22T00:02:20.753Z,170.90
2023-03-22T00:04:50.824Z,284.88
2023-03-22T00:07:18.901Z,205.65
2023-03-22T00:09:46.878Z,129.77
2023-03-22T00:12:15.205Z,127.65
2023-03-22T00:14:43.561Z,122.05
2023-03-22T00:17:11.807Z,116.65
2023-03-22T00:19:42.416Z,117.68
2023-03-22T00:22:12.074Z,120.20
2023-03-22T00:24:40.262Z,105.78
2023-03-22T00:27:08.326Z,102.00
2023-03-22T00:29:36.471Z,103.72
2023-03-22T00:32:04.702Z,94.18
2023-03-22T00:34:33.650Z,100.43
2023-03-22T00:37:04.212Z,99.38
2023-03-22T00:39:32.499Z,102.57
2023-03-22T00:41:59.891Z,112.68
2023-03-22T00:44:28.010Z,102.07
2023-03-22T00:46:55.930Z,103.25
2023-03-22T00:49:25.916Z,105.68
2023-03-22T00:51:54.331Z,101.55
2023-03-22T00:54:22.979Z,105.30
2023-03-22T00:56:51.101Z,103.80
2023-03-22T00:59:19.704Z,107.07
2023-03-22T01:01:47.990Z,96.05
2023-03-22T01:04:18.332Z,96.82
2023-03-22T01:06:47.695Z,93.88
2023-03-22T01:09:16.181Z,104.05
2023-03-22T01:11:45.028Z,101.57
2023-03-22T01:14:15.438Z,103.45
2023-03-22T01:16:43.352Z,99.72
2023-03-22T01:19:11.498Z,102.38
2023-03-22T01:21:39.334Z,98.88
2023-03-22T01:24:07.328Z,99.57
2023-03-22T01:26:35.925Z,100.78
2023-03-22T01:29:04.423Z,113.13
2023-03-22T01:31:32.532Z,108.07
2023-03-22T01:34:01.114Z,109.40
2023-03-22T01:36:30.112Z,99.05
2023-03-22T01:38:58.139Z,96.53
2023-03-22T01:41:26.262Z,95.80
2023-03-22T01:44:14.553Z,95.78
2023-03-22T01:46:43.990Z,100.57
2023-03-22T01:49:33.376Z,101.18
2023-03-22T01:52:07.005Z,102.22
2023-03-22T01:54:50.706Z,101.32
2023-03-22T01:57:30.039Z,106.78
2023-03-22T02:00:00.841Z,96.45
2023-03-22T02:02:50.852Z,98.65
2023-03-22T02:05:28.114Z,99.80
2023-03-22T02:07:58.703Z,97.75
2023-03-22T02:10:28.889Z,88.78
2023-03-22T02:13:21.132Z,91.45
2023-03-22T02:16:25.361Z,91.63
2023-03-22T02:19:19.572Z,88.07
2023-03-22T02:21:59.653Z,91.03
2023-03-22T02:24:46.264Z,96.40
2023-03-22T02:27:47.420Z,94.95
2023-03-22T02:30:52.487Z,89.47
2023-03-22T02:33:42.045Z,83.47
2023-03-22T02:36:35.124Z,88.13
2023-03-22T02:39:23.570Z,94.25
2023-03-22T02:42:36.773Z,108.07
2023-03-22T02:45:14.984Z,91.20
2023-03-22T02:48:01.840Z,101.53
2023-03-22T02:50:33.043Z,103.57
2023-03-22T02:53:28.237Z,112.28
2023-03-22T02:56:03.025Z,96.82
2023-03-22T02:58:39.744Z,100.25
2023-03-22T03:01:10.037Z,107.20
2023-03-22T03:03:38.164Z,96.22
2023-03-22T03:06:10.844Z,93.97
2023-03-22T03:08:40.336Z,100.65
2023-03-22T03:11:10.904Z,93.07
2023-03-22T03:13:38.968Z,100.15
2023-03-22T03:16:08.456Z,102.47
2023-03-22T03:18:44.846Z,96.90
2023-03-22T03:21:37.283Z,96.32
2023-03-22T03:24:28.424Z,107.10
2023-03-22T03:27:17.661Z,100.00
2023-03-22T03:29:49.542Z,98.03
2023-03-22T03:32:19.963Z,103.90
2023-03-22T03:34:57.559Z,106.47
2023-03-22T03:37:30.184Z,102.35
2023-03-22T03:40:10.138Z,108.38
2023-03-22T03:42:42.419Z,115.22
2023-03-22T03:45:11.873Z,107.05
2023-03-22T03:47:40.458Z,106.43
2023-03-22T03:50:09.287Z,104.90
2023-03-22T03:52:38.038Z,108.75
2023-03-22T03:55:06.580Z,120.13
2023-03-22T03:57:36.668Z,110.80
2023-03-22T04:00:06.187Z,118.38
2023-03-22T04:02:53.319Z,110.80
2023-03-22T04:05:41.787Z,103.68
2023-03-22T04:08:10.483Z,105.10
2023-03-22T04:10:38.834Z,107.85
2023-03-22T04:13:07.140Z,115.43
2023-03-22T04:15:35.043Z,111.25
2023-03-22T04:18:07.615Z,111.03
2023-03-22T04:20:35.325Z,113.70
2023-03-22T04:23:03.366Z,111.30
2023-03-22T04:25:34.594Z,114.60
2023-03-22T04:28:10.139Z,112.55
2023-03-22T04:30:39.317Z,113.95
2023-03-22T04:33:26.412Z,107.70
2023-03-22T04:36:24.451Z,110.05
2023-03-22T04:39:16.880Z,101.22
2023-03-22T04:41:54.247Z,116.20
2023-03-22T04:44:22.938Z,113.78
2023-03-22T04:46:51.936Z,113.15
2023-03-22T04:49:20.080Z,108.32
2023-03-22T04:51:48.065Z,122.93
2023-03-22T04:54:37.093Z,118.85
2023-03-22T04:57:05.644Z,145.10
2023-03-22T04:59:39.686Z,129.23
2023-03-22T05:02:08.055Z,131.45
2023-03-22T05:04:43.569Z,134.85
2023-03-22T05:07:25.307Z,141.00
2023-03-22T05:09:57.598Z,136.38
2023-03-22T05:12:26.478Z,118.43
2023-03-22T05:15:01.210Z,128.10
2023-03-22T05:17:34.581Z,109.35
2023-03-22T05:20:09.332Z,116.75
2023-03-22T05:22:41.384Z,95.55
2023-03-22T05:25:12.687Z,87.95
2023-03-22T05:27:44.924Z,82.05
2023-03-22T05:30:34.609Z,82.78
2023-03-22T05:33:14.939Z,87.47
2023-03-22T05:35:46.605Z,75.30
2023-03-22T05:38:16.484Z,78.68
2023-03-22T05:40:49.556Z,83.72
2023-03-22T05:43:17.517Z,65.25
2023-03-22T05:45:50.113Z,83.15
2023-03-22T05:48:37.754Z,68.80
2023-03-22T05:51:14.034Z,70.93
2023-03-22T05:53:41.973Z,77.13
2023-03-22T05:56:15.269Z,63.70
2023-03-22T05:58:45.874Z,60.63
2023-03-22T06:01:23.434Z,63.20
2023-03-22T06:04:10.108Z,59.00
2023-03-22T06:06:50.899Z,61.22
2023-03-22T06:09:41.725Z,53.72
2023-03-22T06:12:16.400Z,56.45
2023-03-22T06:14:49.392Z,57.80
2023-03-22T06:17:36.600Z,59.65
2023-03-22T06:20:11.537Z,48.67
2023-03-22T06:22:43.464Z,50.55
2023-03-22T06:25:12.610Z,46.40
2023-03-22T06:27:44.011Z,50.13
2023-03-22T06:30:14.240Z,46.55
2023-03-22T06:33:05.590Z,44.35
2023-03-22T06:35:36.807Z,44.83
2023-03-22T06:38:07.106Z,51.38
2023-03-22T06:40:39.180Z,43.33
2023-03-22T06:43:08.543Z,43.50
2023-03-22T06:45:39.940Z,45.47
2023-03-22T06:48:08.809Z,45.28
2023-03-22T06:50:59.888Z,44.25
2023-03-22T06:53:34.091Z,45.17
2023-03-22T06:56:04.212Z,51.33
2023-03-22T06:58:39.782Z,42.95
2023-03-22T07:01:07.835Z,44.17
2023-03-22T07:03:37.808Z,37.20
2023-03-22T07:06:11.597Z,34.50
2023-03-22T07:08:44.211Z,37.60
2023-03-22T07:11:14.901Z,36.97
2023-03-22T07:13:45.836Z,36.60
2023-03-22T07:16:20.016Z,28.55
2023-03-22T07:18:58.642Z,30.05
2023-03-22T07:21:26.723Z,27.27
2023-03-22T07:24:02.361Z,25.45
2023-03-22T07:26:32.971Z,26.40
2023-03-22T07:29:03.245Z,27.38
2023-03-22T07:31:37.998Z,32.70
2023-03-22T07:34:10.660Z,29.05
2023-03-22T07:36:51.983Z,25.60
2023-03-22T07:39:20.546Z,26.40
2023-03-22T07:41:50.142Z,28.60
2023-03-22T07:44:36.894Z,26.48
2023-03-22T07:47:40.410Z,24.75
2023-03-22T07:50:19.310Z,25.58
2023-03-22T07:52:51.498Z,27.50
2023-03-22T07:55:20.598Z,26.73
2023-03-22T07:57:48.603Z,25.38
2023-03-22T08:00:18.982Z,24.33
2023-03-22T08:02:57.553Z,27.65
2023-03-22T08:05:44.216Z,27.63
2023-03-22T08:08:15.496Z,21.60
2023-03-22T08:10:43.797Z,23.50
2023-03-22T08:13:12.140Z,25.15
2023-03-22T08:15:40.967Z,22.67
2023-03-22T08:18:09.598Z,24.73
2023-03-22T08:20:42.277Z,21.33
2023-03-22T08:23:16.528Z,28.02
2023-03-22T08:26:07.846Z,32.45
2023-03-22T08:28:35.789Z,21.85
2023-03-22T08:31:13.243Z,23.13
2023-03-22T08:33:43.823Z,24.98
2023-03-22T08:36:16.506Z,22.48
2023-03-22T08:38:53.007Z,26.15
2023-03-22T08:41:28.201Z,26.08
2023-03-22T08:43:56.237Z,24.40
2023-03-22T08:46:24.853Z,25.13
2023-03-22T08:48:53.592Z,27.73
2023-03-22T08:51:31.533Z,24.95
2023-03-22T08:54:12.444Z,27.27
2023-03-22T08:56:59.403Z,27.15
2023-03-22T08:59:40.545Z,27.85
2023-03-22T09:02:29.097Z,26.10
2023-03-22T09:04:58.660Z,23.95
2023-03-22T09:07:28.719Z,27.40
2023-03-22T09:10:12.362Z,26.88
2023-03-22T09:12:44.402Z,25.70
2023-03-22T09:15:13.078Z,25.90
2023-03-22T09:17:44.990Z,25.10
2023-03-22T09:20:13.494Z,26.92
2023-03-22T09:22:45.115Z,31.33
2023-03-22T09:25:15.868Z,25.20
2023-03-22T09:27:47.037Z,24.17
2023-03-22T09:30:15.431Z,22.17
2023-03-22T09:32:43.997Z,24.20
2023-03-22T09:35:14.559Z,21.17
2023-03-22T09:38:10.667Z,24.05
2023-03-22T09:40:47.283Z,25.23
2023-03-22T09:43:16.098Z,19.98
2023-03-22T09:45:47.730Z,20.17
2023-03-22T09:48:22.821Z,21.60
2023-03-22T09:50:53.882Z,21.05
2023-03-22T09:53:24.761Z,18.75
2023-03-22T09:56:17.009Z,19.58
2023-03-22T09:58:51.674Z,23.92
2023-03-22T10:01:29.411Z,23.05
2023-03-22T10:04:27.011Z,21.13
2023-03-22T10:07:15.029Z,19.95
2023-03-22T10:09:51.108Z,19.35
2023-03-22T10:12:30.730Z,17.13
2023-03-22T10:15:20.785Z,21.55
2023-03-22T10:17:54.601Z,19.98
2023-03-22T10:20:44.965Z,20.20
2023-03-22T10:23:18.266Z,16.52
2023-03-22T10:25:47.050Z,19.33
2023-03-22T10:28:27.927Z,18.92
2023-03-22T10:30:58.650Z,21.08
2023-03-22T10:34:00.288Z,21.85
2023-03-22T10:36:33.936Z,20.48
2023-03-22T10:39:30.094Z,20.00
2023-03-22T10:42:01.789Z,21.42
2023-03-22T10:44:35.420Z,21.20
2023-03-22T10:47:08.487Z,20.27
2023-03-22T10:49:40.764Z,18.48
2023-03-22T10:52:31.054Z,20.85
2023-03-22T10:55:03.764Z,21.35
2023-03-22T10:57:32.695Z,20.38
2023-03-22T11:00:00.946Z,21.77
2023-03-22T11:02:31.790Z,21.65
2023-03-22T11:05:04.270Z,22.80
2023-03-22T11:07:33.997Z,22.75
2023-03-22T11:10:29.878Z,23.77
2023-03-22T11:13:07.769Z,25.25
2023-03-22T11:15:39.118Z,23.27
2023-03-22T11:18:13.841Z,22.98
2023-03-22T11:20:43.315Z,20.63
2023-03-22T11:23:13.600Z,22.08
2023-03-22T11:25:48.462Z,21.50
2023-03-22T11:28:22.420Z,19.80
2023-03-22T11:31:02.807Z,23.65
2023-03-22T11:33:31.573Z,24.30
2023-03-22T11:36:04.406Z,19.83
2023-03-22T11:38:38.749Z,20.30
2023-03-22T11:41:13.630Z,22.15
2023-03-22T11:43:48.765Z,20.65
2023-03-22T11:46:19.700Z,72.88
2023-03-22T11:48:53.451Z,102.18
2023-03-22T11:54:03.298Z,93.25
2023-03-22T11:56:31.269Z,21.92
2023-03-22T11:59:23.793Z,22.42
2023-03-22T12:02:04.336Z,23.08
2023-03-22T12:04:36.467Z,21.17
2023-03-22T12:07:10.872Z,19.88
2023-03-22T12:09:46.130Z,21.63
2023-03-22T12:12:23.277Z,22.83
2023-03-22T12:15:00.059Z,27.35
2023-03-22T12:17:50.329Z,22.50
2023-03-22T12:20:22.375Z,22.02
2023-03-22T12:22:54.175Z,21.67
2023-03-22T12:25:26.786Z,18.03
2023-03-22T12:27:57.853Z,19.93
2023-03-22T12:30:29.030Z,20.33
2023-03-22T12:33:10.095Z,19.73
2023-03-22T12:35:43.837Z,20.85
2023-03-22T12:38:34.276Z,19.45
2023-03-22T12:41:06.942Z,20.90
2023-03-22T12:43:49.433Z,21.30
2023-03-22T12:46:28.045Z,19.20
2023-03-22T12:49:34.942Z,21.25
2023-03-22T12:52:46.226Z,19.02
2023-03-22T12:55:19.707Z,18.17
2023-03-22T12:57:51.463Z,18.63
2023-03-22T13:00:21.065Z,19.35
2023-03-22T13:03:09.857Z,17.95
2023-03-22T13:05:38.816Z,18.20
2023-03-22T13:08:07.596Z,19.90
2023-03-22T13:10:37.308Z,18.17
2023-03-22T13:13:33.577Z,17.73
2023-03-22T13:16:09.672Z,16.02
2023-03-22T13:18:40.597Z,17.58
2023-03-22T13:21:21.738Z,19.30
2023-03-22T13:23:57.905Z,16.08
2023-03-22T13:26:48.517Z,19.42
2023-03-22T13:29:17.856Z,19.88
2023-03-22T13:31:51.953Z,17.80
2023-03-22T13:34:23.077Z,17.98
2023-03-22T13:36:55.499Z,18.55
2023-03-22T13:39:26.112Z,17.50
2023-03-22T13:42:09.516Z,19.38
2023-03-22T13:44:40.417Z,21.25
2023-03-22T13:47:30.161Z,17.60
2023-03-22T13:50:07.877Z,20.30
2023-03-22T13:52:53.602Z,19.02
2023-03-22T13:55:47.016Z,22.63
2023-03-22T13:58:38.288Z,19.55
2023-03-22T14:01:16.808Z,19.50
2023-03-22T14:03:47.725Z,16.80
2023-03-22T14:06:26.795Z,19.77
2023-03-22T14:09:15.432Z,18.10
2023-03-22T14:11:50.035Z,19.08
2023-03-22T14:14:23.137Z,20.83
2023-03-22T14:17:16.535Z,17.73
2023-03-22T14:19:45.023Z,19.80
